Dades meteomassalio
Diari Summary for Octubre 13, 2017 Units:  Metric    English   Both
« Previous Day
Next Day »
Diari Semanal Mensual Anual Personalitzat
  Maxima: Minima: Mijana:
Temperatura: 27.8 °C 7.8 °C 16 °C
Rosada: 16.7 °C 6.1 °C 11.3 °C
Humitat: 90 % 47 % 76 %
Velocitat del vent: 20.4 km/h 0.0 km/h 3.2 km/h
Racha vent: 20.4 km/h - -
Vent:- - SSW
Pressio: 1029.0 hPa 1024.6 hPa -
Pluja: 0.0 mm    
Historical Graphs
 
 
Tabular Data for Octubre 13, 2017
Time Temperature Dew Point Pressure Wind Wind Speed Wind Gust Humidity Rainfall Rate (Hourly) solar Conditions
00:02 12.2 °C 9.1 °C 1028.0 hPa Calm     81 % 0.0 mm 0.0 W/m2 CLR
00:07 12.2 °C 9.1 °C 1028.0 hPa Calm     81 % 0.0 mm 0.0 W/m2 CLR
00:12 12.2 °C 9.1 °C 1028.0 hPa Calm     81 % 0.0 mm 0.0 W/m2 CLR
00:17 12.2 °C 9.2 °C 1028.0 hPa Calm     82 % 0.0 mm 0.0 W/m2 CLR
00:22 11.7 °C 8.7 °C 1028.0 hPa Calm     82 % 0.0 mm 0.0 W/m2 CLR
00:27 11.7 °C 8.7 °C 1028.0 hPa Calm     82 % 0.0 mm 0.0 W/m2 CLR
00:32 11.7 °C 8.7 °C 1028.0 hPa Calm     82 % 0.0 mm 0.0 W/m2 CLR
00:37 11.1 °C 8.2 °C 1028.0 hPa Calm     82 % 0.0 mm 0.0 W/m2 CLR
00:42 11.1 °C 8.3 °C 1028.0 hPa Calm     83 % 0.0 mm 0.0 W/m2 CLR
00:47 11.1 °C 8.3 °C 1028.0 hPa Calm     83 % 0.0 mm 0.0 W/m2 CLR
00:52 11.1 °C 8.5 °C 1028.0 hPa Calm     84 % 0.0 mm 0.0 W/m2 CLR
00:57 11.1 °C 8.5 °C 1028.0 hPa Calm     84 % 0.0 mm 0.0 W/m2 CLR
01:02 11.1 °C 8.5 °C 1028.0 hPa Calm     84 % 0.0 mm 0.0 W/m2 CLR
01:07 11.1 °C 8.5 °C 1028.0 hPa Calm     84 % 0.0 mm 0.0 W/m2 CLR
01:12 11.1 °C 8.7 °C 1028.0 hPa Calm     85 % 0.0 mm 0.0 W/m2 CLR
01:17 11.1 °C 8.7 °C 1028.0 hPa Calm     85 % 0.0 mm 0.0 W/m2 CLR
01:22 11.1 °C 8.7 °C 1028.0 hPa Calm     85 % 0.0 mm 0.0 W/m2 CLR
01:27 10.6 °C 8.1 °C 1028.0 hPa Calm     85 % 0.0 mm 0.0 W/m2 CLR
01:32 10.6 °C 7.9 °C 1028.0 hPa Calm     84 % 0.0 mm 0.0 W/m2 CLR
01:37 10.6 °C 7.9 °C 1028.0 hPa Calm     84 % 0.0 mm 0.0 W/m2 CLR
01:42 10.0 °C 7.6 °C 1028.0 hPa Calm     85 % 0.0 mm 0.0 W/m2 CLR
01:47 10.6 °C 8.3 °C 1028.0 hPa Calm     86 % 0.0 mm 0.0 W/m2 CLR
01:52 10.6 °C 8.3 °C 1028.0 hPa Calm     86 % 0.0 mm 0.0 W/m2 CLR
01:57 10.6 °C 8.3 °C 1028.0 hPa Calm     86 % 0.0 mm 0.0 W/m2 CLR
02:02 10.0 °C 7.8 °C 1028.0 hPa Calm     86 % 0.0 mm 0.0 W/m2 CLR
02:07 10.0 °C 7.9 °C 1028.0 hPa Calm     87 % 0.0 mm 0.0 W/m2 CLR
02:12 10.0 °C 7.8 °C 1028.0 hPa Calm     86 % 0.0 mm 0.0 W/m2 CLR
02:17 9.4 °C 7.4 °C 1028.0 hPa Calm     87 % 0.0 mm 0.0 W/m2 CLR
02:22 9.4 °C 7.4 °C 1028.0 hPa Calm     87 % 0.0 mm 0.0 W/m2 CLR
02:27 9.4 °C 7.4 °C 1028.0 hPa Calm     87 % 0.0 mm 0.0 W/m2 CLR
02:32 9.4 °C 7.4 °C 1028.0 hPa Calm     87 % 0.0 mm 0.0 W/m2 CLR
02:37 9.4 °C 7.4 °C 1028.0 hPa Calm     87 % 0.0 mm 0.0 W/m2 CLR
02:42 9.4 °C 7.4 °C 1028.0 hPa Calm     87 % 0.0 mm 0.0 W/m2 CLR
02:47 9.4 °C 7.4 °C 1028.0 hPa Calm     87 % 0.0 mm 0.0 W/m2 CLR
02:52 9.4 °C 7.4 °C 1028.0 hPa Calm     87 % 0.0 mm 0.0 W/m2 CLR
02:57 9.4 °C 7.4 °C 1028.0 hPa Calm     87 % 0.0 mm 0.0 W/m2 CLR
03:02 9.4 °C 7.4 °C 1028.0 hPa Calm     87 % 0.0 mm 0.0 W/m2 CLR
03:07 9.4 °C 7.4 °C 1028.0 hPa Calm     87 % 0.0 mm 0.0 W/m2 CLR
03:12 9.4 °C 7.6 °C 1028.0 hPa Calm     88 % 0.0 mm 0.0 W/m2 CLR
03:17 9.4 °C 7.6 °C 1028.0 hPa Calm     88 % 0.0 mm 0.0 W/m2 CLR
03:22 8.9 °C 7.0 °C 1028.0 hPa Calm     88 % 0.0 mm 0.0 W/m2 CLR
03:27 8.9 °C 7.0 °C 1028.0 hPa Calm     88 % 0.0 mm 0.0 W/m2 CLR
03:32 8.9 °C 7.0 °C 1028.0 hPa Calm     88 % 0.0 mm 0.0 W/m2 CLR
03:37 8.9 °C 7.0 °C 1028.0 hPa Calm     88 % 0.0 mm 0.0 W/m2 CLR
03:43 9.4 °C 7.6 °C 1028.0 hPa Calm     88 % 0.0 mm 0.0 W/m2 CLR
03:48 8.9 °C 7.0 °C 1028.0 hPa Calm     88 % 0.0 mm 0.0 W/m2 CLR
03:53 8.9 °C 7.0 °C 1028.0 hPa Calm     88 % 0.0 mm 0.0 W/m2 CLR
03:58 8.9 °C 7.0 °C 1028.0 hPa Calm     88 % 0.0 mm 0.0 W/m2 CLR
04:03 8.9 °C 7.0 °C 1028.0 hPa Calm     88 % 0.0 mm 0.0 W/m2 CLR
04:08 8.9 °C 7.0 °C 1028.0 hPa Calm     88 % 0.0 mm 0.0 W/m2 CLR
04:13 8.9 °C 7.0 °C 1028.0 hPa Calm     88 % 0.0 mm 0.0 W/m2 CLR
04:18 8.9 °C 7.0 °C 1028.0 hPa Calm     88 % 0.0 mm 0.0 W/m2 CLR
04:23 8.9 °C 7.2 °C 1028.0 hPa Calm     89 % 0.0 mm 0.0 W/m2 CLR
04:28 8.9 °C 7.2 °C 1028.0 hPa Calm     89 % 0.0 mm 0.0 W/m2 CLR
04:33 8.9 °C 7.2 °C 1028.0 hPa Calm     89 % 0.0 mm 0.0 W/m2 CLR
04:38 8.9 °C 7.2 °C 1028.0 hPa Calm     89 % 0.0 mm 0.0 W/m2 CLR
04:43 8.9 °C 7.2 °C 1028.0 hPa Calm     89 % 0.0 mm 0.0 W/m2 CLR
04:48 8.9 °C 7.2 °C 1028.0 hPa Calm     89 % 0.0 mm 0.0 W/m2 CLR
04:53 8.3 °C 6.6 °C 1028.0 hPa Calm     89 % 0.0 mm 0.0 W/m2 CLR
04:58 8.3 °C 6.6 °C 1028.0 hPa Calm     89 % 0.0 mm 0.0 W/m2 CLR
05:03 8.3 °C 6.6 °C 1028.0 hPa Calm     89 % 0.0 mm 0.0 W/m2 CLR
05:08 8.3 °C 6.4 °C 1028.0 hPa Calm     88 % 0.0 mm 0.0 W/m2 CLR
05:13 8.3 °C 6.4 °C 1028.0 hPa Calm     88 % 0.0 mm 0.0 W/m2 CLR
05:18 7.8 °C 6.1 °C 1028.0 hPa Calm     89 % 0.0 mm 0.0 W/m2 CLR
05:23 7.8 °C 6.1 °C 1028.0 hPa Calm     89 % 0.0 mm 0.0 W/m2 CLR
05:28 7.8 °C 6.1 °C 1028.0 hPa Calm     89 % 0.0 mm 0.0 W/m2 CLR
05:33 7.8 °C 6.1 °C 1028.0 hPa Calm     89 % 0.0 mm 0.0 W/m2 CLR
05:38 7.8 °C 6.1 °C 1028.0 hPa Calm     89 % 0.0 mm 0.0 W/m2 CLR
05:43 7.8 °C 6.1 °C 1028.0 hPa Calm     89 % 0.0 mm 0.0 W/m2 CLR
05:48 7.8 °C 6.1 °C 1028.0 hPa Calm     89 % 0.0 mm 0.0 W/m2 CLR
05:53 7.8 °C 6.1 °C 1028.0 hPa Calm     89 % 0.0 mm 0.0 W/m2 CLR
05:58 7.8 °C 6.1 °C 1028.0 hPa Calm     89 % 0.0 mm 0.0 W/m2 CLR
06:03 7.8 °C 6.1 °C 1028.0 hPa Calm     89 % 0.0 mm 0.0 W/m2 CLR
06:08 7.8 °C 6.1 °C 1028.3 hPa Calm     89 % 0.0 mm 0.0 W/m2 CLR
06:13 8.3 °C 6.6 °C 1028.0 hPa Calm     89 % 0.0 mm 0.0 W/m2 CLR
06:18 8.9 °C 7.2 °C 1028.3 hPa Calm     89 % 0.0 mm 0.0 W/m2 CLR
06:23 8.9 °C 7.3 °C 1028.3 hPa Calm     90 % 0.0 mm 0.0 W/m2 CLR
06:28 9.4 °C 7.9 °C 1028.3 hPa Calm     90 % 0.0 mm 0.0 W/m2 CLR
06:33 9.4 °C 7.7 °C 1028.0 hPa Calm     89 % 0.0 mm 0.0 W/m2 CLR
06:38 9.4 °C 7.7 °C 1028.3 hPa Calm     89 % 0.0 mm 0.0 W/m2 CLR
06:43 9.4 °C 7.7 °C 1028.0 hPa Calm     89 % 0.0 mm 0.0 W/m2 CLR
06:48 9.4 °C 7.7 °C 1028.3 hPa Calm     89 % 0.0 mm 0.0 W/m2 CLR
06:53 9.4 °C 7.7 °C 1028.3 hPa Calm     89 % 0.0 mm 0.0 W/m2 CLR
06:58 9.4 °C 7.7 °C 1028.3 hPa Calm     89 % 0.0 mm 0.0 W/m2 CLR
07:03 10.0 °C 8.4 °C 1028.3 hPa Calm     90 % 0.0 mm 0.0 W/m2 CLR
07:08 10.0 °C 8.3 °C 1028.3 hPa Calm     89 % 0.0 mm 0.0 W/m2 CLR
07:13 10.0 °C 8.3 °C 1028.3 hPa Calm     89 % 0.0 mm 0.0 W/m2 CLR
07:18 10.0 °C 8.3 °C 1028.3 hPa Calm     89 % 0.0 mm 0.0 W/m2 CLR
07:23 10.0 °C 8.3 °C 1028.3 hPa Calm     89 % 0.0 mm 0.0 W/m2 CLR
07:28 10.6 °C 8.8 °C 1028.3 hPa Calm     89 % 0.0 mm 0.0 W/m2 CLR
07:33 10.6 °C 8.8 °C 1028.0 hPa Calm     89 % 0.0 mm 0.0 W/m2 CLR
07:39 10.6 °C 8.8 °C 1028.0 hPa Calm     89 % 0.0 mm 0.0 W/m2 CLR
07:44 10.6 °C 8.8 °C 1028.3 hPa Calm     89 % 0.0 mm 0.0 W/m2 CLR
07:49 10.6 °C 8.8 °C 1028.0 hPa Calm     89 % 0.0 mm 0.0 W/m2 CLR
07:54 10.6 °C 8.7 °C 1028.0 hPa Calm     88 % 0.0 mm 0.0 W/m2 CLR
07:59 10.6 °C 8.5 °C 1028.0 hPa Calm     87 % 0.0 mm 0.0 W/m2 CLR
08:04 10.6 °C 8.5 °C 1028.3 hPa Calm     87 % 0.0 mm 0.0 W/m2 OVC
08:09 10.6 °C 8.7 °C 1028.3 hPa Calm     88 % 0.0 mm 0.0 W/m2 OVC
08:14 10.6 °C 8.7 °C 1028.3 hPa Calm     88 % 0.0 mm 5.0 W/m2 OVC
08:19 10.0 °C 8.1 °C 1028.3 hPa Calm     88 % 0.0 mm 11.0 W/m2 BKN
08:24 10.0 °C 8.1 °C 1028.3 hPa Calm     88 % 0.0 mm 16.0 W/m2 BKN
08:29 10.0 °C 8.1 °C 1028.3 hPa Calm     88 % 0.0 mm 21.0 W/m2 BKN
08:34 10.0 °C 8.1 °C 1028.3 hPa Calm     88 % 0.0 mm 26.0 W/m2 BKN
08:39 10.0 °C 8.3 °C 1028.3 hPa Calm     89 % 0.0 mm 33.0 W/m2 BKN
08:44 10.0 °C 8.1 °C 1028.3 hPa Calm     88 % 0.0 mm 40.0 W/m2 BKN
08:49 10.0 °C 8.1 °C 1028.3 hPa Calm     88 % 0.0 mm 44.0 W/m2 BKN
08:54 10.0 °C 8.3 °C 1028.7 hPa Calm     89 % 0.0 mm 40.0 W/m2 BKN
08:59 10.0 °C 8.1 °C 1028.7 hPa Calm     88 % 0.0 mm 46.0 W/m2 SCT
09:04 10.0 °C 8.1 °C 1028.7 hPa Calm     88 % 0.0 mm 72.0 W/m2 FEW
09:09 10.0 °C 8.1 °C 1028.7 hPa Calm     88 % 0.0 mm 58.0 W/m2 SCT
09:14 10.6 °C 8.8 °C 1028.7 hPa Calm     89 % 0.0 mm 53.0 W/m2 FEW
09:19 10.6 °C 8.7 °C 1028.7 hPa Calm     88 % 0.0 mm 62.0 W/m2 SCT
09:24 10.6 °C 8.7 °C 1028.7 hPa Calm     88 % 0.0 mm 88.0 W/m2 FEW
09:29 10.6 °C 8.7 °C 1028.7 hPa Calm     88 % 0.0 mm 93.0 W/m2 CLR
09:34 10.6 °C 8.7 °C 1029.0 hPa Calm     88 % 0.0 mm 107.0 W/m2 CLR
09:39 10.6 °C 8.7 °C 1029.0 hPa Calm     88 % 0.0 mm 176.0 W/m2 CLR
09:40 10.6 °C 8.7 °C 1029.0 hPa Calm     88 % 0.0 mm 181.0 W/m2 CLR
09:45 11.1 °C 9.1 °C 1029.0 hPa Calm     87 % 0.0 mm 197.0 W/m2 CLR
09:50 11.7 °C 9.4 °C 1029.0 hPa Calm     86 % 0.0 mm 214.0 W/m2 CLR
09:55 12.2 °C 9.6 °C 1029.0 hPa Calm     84 % 0.0 mm 232.0 W/m2 CLR
10:00 12.8 °C 10.2 °C 1029.0 hPa Calm     84 % 0.0 mm 246.0 W/m2 CLR
10:05 13.3 °C 10.3 °C 1029.0 hPa Calm     82 % 0.0 mm 260.0 W/m2 CLR
10:10 13.3 °C 9.9 °C 1029.0 hPa Calm     80 % 0.0 mm 272.0 W/m2 CLR
10:15 13.9 °C 10.3 °C 1029.0 hPa Calm     79 % 0.0 mm 290.0 W/m2 CLR
10:20 14.4 °C 10.7 °C 1029.0 hPa Calm     78 % 0.0 mm 302.0 W/m2 CLR
10:25 14.4 °C 10.4 °C 1029.0 hPa Calm     77 % 0.0 mm 316.0 W/m2 CLR
10:32 15.0 °C 11.0 °C 1028.7 hPa Calm     77 % 0.0 mm 332.0 W/m2 CLR
10:37 15.0 °C 10.6 °C 1028.7 hPa Calm     75 % 0.0 mm 345.0 W/m2 CLR
10:42 15.6 °C 11.3 °C 1028.7 hPa Calm     76 % 0.0 mm 357.0 W/m2 CLR
10:47 16.1 °C 11.7 °C 1029.0 hPa Calm     75 % 0.0 mm 369.0 W/m2 CLR
10:52 16.1 °C 11.7 °C 1028.7 hPa Calm     75 % 0.0 mm 385.0 W/m2 CLR
10:57 16.1 °C 11.5 °C 1028.7 hPa Calm     74 % 0.0 mm 397.0 W/m2 CLR
11:02 16.7 °C 12.0 °C 1028.7 hPa Calm     74 % 0.0 mm 411.0 W/m2 CLR
11:08 16.7 °C 12.0 °C 1028.7 hPa Calm     74 % 0.0 mm 422.0 W/m2 CLR
11:13 17.2 °C 12.3 °C 1028.7 hPa Calm     73 % 0.0 mm 436.0 W/m2 CLR
11:18 17.2 °C 12.6 °C 1028.7 hPa Calm     74 % 0.0 mm 446.0 W/m2 CLR
11:23 17.8 °C 12.9 °C 1028.7 hPa Calm     73 % 0.0 mm 459.0 W/m2 CLR
11:29 17.8 °C 12.7 °C 1028.7 hPa Calm     72 % 0.0 mm 469.0 W/m2 CLR
11:34 18.3 °C 13.2 °C 1028.7 hPa NNW 1.9 km/h 1.9 km/h 72 % 0.0 mm 483.0 W/m2 CLR
11:39 18.3 °C 13.4 °C 1028.7 hPa NNW 3.7 km/h 3.7 km/h 73 % 0.0 mm 492.0 W/m2 CLR
11:44 18.3 °C 13.4 °C 1028.7 hPa North 4.8 km/h 4.8 km/h 73 % 0.0 mm 499.0 W/m2 CLR
11:49 18.9 °C 13.9 °C 1028.7 hPa North 7.4 km/h 7.4 km/h 73 % 0.0 mm 510.0 W/m2 CLR
11:54 18.9 °C 13.9 °C 1028.7 hPa North 1.6 km/h   73 % 0.0 mm 519.0 W/m2 CLR
11:59 19.4 °C 14.3 °C 1028.3 hPa NNW 3.7 km/h   72 % 0.0 mm 527.0 W/m2 CLR
12:04 20.0 °C 14.8 °C 1028.3 hPa North 1.9 km/h   72 % 0.0 mm 536.0 W/m2 CLR
12:09 20.0 °C 14.3 °C 1028.3 hPa NW 5.6 km/h 5.6 km/h 70 % 0.0 mm 543.0 W/m2 CLR
12:14 20.6 °C 15.1 °C 1028.3 hPa Calm     71 % 0.0 mm 550.0 W/m2 CLR
12:19 20.6 °C 14.9 °C 1028.3 hPa North 1.9 km/h 1.9 km/h 70 % 0.0 mm 557.0 W/m2 CLR
12:24 21.1 °C 15.0 °C 1028.3 hPa NNW 3.7 km/h   68 % 0.0 mm 564.0 W/m2 CLR
12:29 21.1 °C 14.3 °C 1028.3 hPa North 3.7 km/h 3.7 km/h 65 % 0.0 mm 570.0 W/m2 CLR
12:34 21.7 °C 14.8 °C 1028.0 hPa NNW 1.9 km/h 1.9 km/h 65 % 0.0 mm 575.0 W/m2 CLR
12:39 21.1 °C 13.8 °C 1028.0 hPa NE 3.7 km/h 3.7 km/h 63 % 0.0 mm 584.0 W/m2 CLR
12:44 21.7 °C 14.1 °C 1028.0 hPa North 3.7 km/h 3.7 km/h 62 % 0.0 mm 587.0 W/m2 CLR
12:49 22.2 °C 14.1 °C 1028.0 hPa NNW 5.6 km/h   60 % 0.0 mm 594.0 W/m2 CLR
12:54 22.2 °C 14.1 °C 1028.0 hPa North 7.4 km/h 7.4 km/h 60 % 0.0 mm 596.0 W/m2 CLR
12:59 22.2 °C 13.8 °C 1028.0 hPa North 5.6 km/h 5.6 km/h 59 % 0.0 mm 599.0 W/m2 CLR
13:04 22.8 °C 14.6 °C 1027.7 hPa NNW 13.0 km/h 13.0 km/h 60 % 0.0 mm 605.0 W/m2 CLR
13:09 22.2 °C 14.1 °C 1027.7 hPa NNW 4.8 km/h 4.8 km/h 60 % 0.0 mm 606.0 W/m2 CLR
13:14 22.2 °C 14.3 °C 1027.7 hPa North 8.0 km/h 8.0 km/h 61 % 0.0 mm 612.0 W/m2 CLR
13:19 22.2 °C 14.3 °C 1027.7 hPa NNW 5.6 km/h 5.6 km/h 61 % 0.0 mm 613.0 W/m2 CLR
13:24 22.8 °C 15.1 °C 1027.3 hPa North 3.7 km/h 3.7 km/h 62 % 0.0 mm 613.0 W/m2 CLR
13:29 22.8 °C 15.4 °C 1027.3 hPa NNW 9.7 km/h 9.7 km/h 63 % 0.0 mm 615.0 W/m2 CLR
13:34 22.8 °C 15.4 °C 1027.3 hPa Calm   0.2 km/h 63 % 0.0 mm 619.0 W/m2 CLR
13:39 22.8 °C 15.4 °C 1027.0 hPa NW 9.3 km/h 9.3 km/h 63 % 0.0 mm 619.0 W/m2 CLR
13:44 23.3 °C 15.9 °C 1027.0 hPa North 5.6 km/h 5.6 km/h 63 % 0.0 mm 619.0 W/m2 CLR
13:49 23.3 °C 15.4 °C 1027.0 hPa Calm   0.2 km/h 61 % 0.0 mm 619.0 W/m2 CLR
13:54 23.3 °C 15.1 °C 1027.0 hPa NW 5.6 km/h   60 % 0.0 mm 621.0 W/m2 CLR
13:59 23.9 °C 15.4 °C 1026.6 hPa Calm     59 % 0.0 mm 619.0 W/m2 CLR
14:04 23.9 °C 15.4 °C 1026.6 hPa North 4.8 km/h 4.8 km/h 59 % 0.0 mm 617.0 W/m2 CLR
14:09 23.9 °C 15.4 °C 1026.6 hPa NNW 13.0 km/h 13.0 km/h 59 % 0.0 mm 615.0 W/m2 CLR
14:14 23.9 °C 15.4 °C 1026.3 hPa NNW 9.7 km/h 9.7 km/h 59 % 0.0 mm 613.0 W/m2 CLR
14:19 23.9 °C 15.1 °C 1026.3 hPa North 9.7 km/h 9.7 km/h 58 % 0.0 mm 612.0 W/m2 CLR
14:25 24.4 °C 15.7 °C 1026.3 hPa NNW 11.1 km/h 11.1 km/h 58 % 0.0 mm 610.0 W/m2 CLR
14:30 24.4 °C 15.7 °C 1026.3 hPa NW 14.8 km/h 14.8 km/h 58 % 0.0 mm 606.0 W/m2 CLR
14:35 24.4 °C 15.9 °C 1026.3 hPa NW 14.8 km/h 14.8 km/h 59 % 0.0 mm 605.0 W/m2 CLR
14:40 25.0 °C 16.4 °C 1026.0 hPa WNW 5.6 km/h 5.6 km/h 59 % 0.0 mm 599.0 W/m2 CLR
14:45 25.0 °C 16.2 °C 1026.0 hPa WNW 14.8 km/h 14.8 km/h 58 % 0.0 mm 596.0 W/m2 CLR
14:50 25.0 °C 16.2 °C 1026.0 hPa NNW 7.4 km/h 7.4 km/h 58 % 0.0 mm 594.0 W/m2 CLR
14:55 25.6 °C 16.7 °C 1026.0 hPa North 7.4 km/h 7.4 km/h 58 % 0.0 mm 589.0 W/m2 CLR
15:00 25.6 °C 16.7 °C 1026.0 hPa NW 18.5 km/h 18.5 km/h 58 % 0.0 mm 582.0 W/m2 CLR
15:05 25.6 °C 16.4 °C 1025.6 hPa NW 14.8 km/h 14.8 km/h 57 % 0.0 mm 575.0 W/m2 CLR
15:10 25.6 °C 16.1 °C 1025.6 hPa NNW 14.8 km/h 14.8 km/h 56 % 0.0 mm 568.0 W/m2 CLR
15:15 26.1 °C 16.7 °C 1025.6 hPa NNW 18.5 km/h 18.5 km/h 56 % 0.0 mm 563.0 W/m2 CLR
15:20 26.1 °C 16.4 °C 1025.6 hPa NNW 20.4 km/h 20.4 km/h 55 % 0.0 mm 552.0 W/m2 CLR
15:25 26.1 °C 16.1 °C 1025.6 hPa NNW 9.3 km/h 9.3 km/h 54 % 0.0 mm 543.0 W/m2 CLR
15:30 26.7 °C 16.3 °C 1025.3 hPa NNW 14.8 km/h 14.8 km/h 53 % 0.0 mm 538.0 W/m2 CLR
15:35 26.7 °C 16.0 °C 1025.3 hPa NW 18.5 km/h 18.5 km/h 52 % 0.0 mm 529.0 W/m2 CLR
15:40 26.7 °C 16.0 °C 1025.3 hPa NW 16.7 km/h 16.7 km/h 52 % 0.0 mm 522.0 W/m2 CLR
15:45 26.7 °C 16.0 °C 1025.3 hPa NW 13.0 km/h 13.0 km/h 52 % 0.0 mm 510.0 W/m2 CLR
15:50 26.7 °C 16.0 °C 1025.3 hPa NW 12.9 km/h 12.9 km/h 52 % 0.0 mm 499.0 W/m2 CLR
15:55 27.2 °C 16.2 °C 1025.3 hPa NNW 16.7 km/h 16.7 km/h 51 % 0.0 mm 492.0 W/m2 CLR
16:00 27.8 °C 16.1 °C 1025.3 hPa NNE 20.4 km/h 20.4 km/h 49 % 0.0 mm 485.0 W/m2 CLR
16:05 27.8 °C 16.1 °C 1024.9 hPa NNE 16.7 km/h 16.7 km/h 49 % 0.0 mm 475.0 W/m2 CLR
16:10 27.8 °C 15.8 °C 1024.9 hPa NE 14.8 km/h 14.8 km/h 48 % 0.0 mm 461.0 W/m2 CLR
16:15 27.8 °C 15.8 °C 1024.9 hPa NNE 13.0 km/h 13.0 km/h 48 % 0.0 mm 448.0 W/m2 CLR
16:20 27.2 °C 15.3 °C 1024.9 hPa NNE 7.4 km/h 7.4 km/h 48 % 0.0 mm 438.0 W/m2 CLR
16:25 27.2 °C 14.9 °C 1024.9 hPa North 14.8 km/h 14.8 km/h 47 % 0.0 mm 429.0 W/m2 CLR
16:30 27.8 °C 15.4 °C 1024.9 hPa NNW 9.7 km/h 9.7 km/h 47 % 0.0 mm 415.0 W/m2 CLR
16:35 27.2 °C 14.9 °C 1024.9 hPa North 16.7 km/h 16.7 km/h 47 % 0.0 mm 404.0 W/m2 CLR
16:40 27.2 °C 15.6 °C 1024.9 hPa NNE 16.7 km/h 16.7 km/h 49 % 0.0 mm 390.0 W/m2 CLR
16:45 27.2 °C 15.3 °C 1024.9 hPa NNE 16.7 km/h 16.7 km/h 48 % 0.0 mm 380.0 W/m2 CLR
16:50 27.2 °C 15.3 °C 1024.6 hPa North 13.0 km/h 13.0 km/h 48 % 0.0 mm 364.0 W/m2 CLR
16:55 26.7 °C 15.1 °C 1024.6 hPa NNE 8.0 km/h 8.0 km/h 49 % 0.0 mm 350.0 W/m2 CLR
17:00 26.7 °C 15.4 °C 1024.6 hPa NNE 14.8 km/h 14.8 km/h 50 % 0.0 mm 336.0 W/m2 CLR
17:05 26.7 °C 15.7 °C 1024.6 hPa North 14.8 km/h 14.8 km/h 51 % 0.0 mm 323.0 W/m2 CLR
17:10 26.7 °C 16.0 °C 1024.6 hPa NNE 14.5 km/h 14.5 km/h 52 % 0.0 mm 313.0 W/m2 CLR
17:15 26.7 °C 15.7 °C 1024.6 hPa NNE 14.8 km/h 14.8 km/h 51 % 0.0 mm 294.0 W/m2 CLR
17:20 26.7 °C 16.0 °C 1024.6 hPa North 9.7 km/h 9.7 km/h 52 % 0.0 mm 283.0 W/m2 CLR
17:25 26.7 °C 16.3 °C 1024.6 hPa NNE 9.3 km/h 9.3 km/h 53 % 0.0 mm 269.0 W/m2 CLR
17:30 26.1 °C 15.5 °C 1024.6 hPa North 3.7 km/h 3.7 km/h 52 % 0.0 mm 251.0 W/m2 CLR
17:35 26.1 °C 16.1 °C 1024.6 hPa NE 7.4 km/h 7.4 km/h 54 % 0.0 mm 239.0 W/m2 CLR
17:40 26.1 °C 16.1 °C 1024.6 hPa North 7.4 km/h 7.4 km/h 54 % 0.0 mm 225.0 W/m2 CLR
17:45 25.6 °C 15.8 °C 1024.6 hPa NNE 1.9 km/h   55 % 0.0 mm 209.0 W/m2 CLR
17:50 25.6 °C 16.1 °C 1024.6 hPa NNE 8.0 km/h 8.0 km/h 56 % 0.0 mm 193.0 W/m2 CLR
17:55 25.6 °C 16.4 °C 1024.6 hPa NNE 13.0 km/h 13.0 km/h 57 % 0.0 mm 174.0 W/m2 CLR
18:00 25.0 °C 16.4 °C 1024.6 hPa ENE 13.0 km/h 13.0 km/h 59 % 0.0 mm 160.0 W/m2 CLR
18:05 25.0 °C 16.7 °C 1024.6 hPa North 13.0 km/h 13.0 km/h 60 % 0.0 mm 144.0 W/m2 CLR
18:10 24.4 °C 16.4 °C 1024.6 hPa NE 14.8 km/h 14.8 km/h 61 % 0.0 mm 130.0 W/m2 CLR
18:15 24.4 °C 16.7 °C 1024.6 hPa NNE 11.1 km/h 11.1 km/h 62 % 0.0 mm 113.0 W/m2 CLR
18:25 23.9 °C 16.4 °C 1024.6 hPa NNE 13.0 km/h 13.0 km/h 63 % 0.0 mm 88.0 W/m2 CLR
18:30 23.9 °C 16.4 °C 1024.6 hPa NNE 11.1 km/h 11.1 km/h 63 % 0.0 mm 76.0 W/m2 FEW
18:35 23.9 °C 16.7 °C 1024.9 hPa NNE 7.4 km/h 7.4 km/h 64 % 0.0 mm 60.0 W/m2 SCT
18:40 23.3 °C 16.1 °C 1024.9 hPa North 7.4 km/h 7.4 km/h 64 % 0.0 mm 51.0 W/m2 SCT
18:45 23.3 °C 16.4 °C 1024.9 hPa NNE 9.3 km/h 9.3 km/h 65 % 0.0 mm 42.0 W/m2 BKN
18:50 23.3 °C 16.4 °C 1024.9 hPa North 4.8 km/h 4.8 km/h 65 % 0.0 mm 35.0 W/m2 BKN
18:55 22.8 °C 16.1 °C 1024.9 hPa NNE 5.6 km/h 5.6 km/h 66 % 0.0 mm 28.0 W/m2 BKN
19:00 22.2 °C 15.8 °C 1024.9 hPa NNW 5.6 km/h 5.6 km/h 67 % 0.0 mm 21.0 W/m2 BKN
19:05 21.7 °C 15.3 °C 1024.9 hPa NE 9.3 km/h 9.3 km/h 67 % 0.0 mm 16.0 W/m2 BKN
19:10 21.7 °C 15.5 °C 1024.9 hPa NNE 7.4 km/h 7.4 km/h 68 % 0.0 mm 12.0 W/m2 BKN
19:15 21.1 °C 15.0 °C 1024.9 hPa NE 9.3 km/h 9.3 km/h 68 % 0.0 mm 9.0 W/m2 BKN
19:20 20.6 °C 14.7 °C 1025.3 hPa NNE 11.1 km/h 11.1 km/h 69 % 0.0 mm 5.0 W/m2 OVC
19:25 20.6 °C 14.7 °C 1025.3 hPa Calm     69 % 0.0 mm 0.0 W/m2 OVC
19:30 20.0 °C 14.1 °C 1025.3 hPa Calm     69 % 0.0 mm 0.0 W/m2 OVC
19:35 20.0 °C 14.3 °C 1025.3 hPa Calm     70 % 0.0 mm 0.0 W/m2 CLR
19:40 19.4 °C 14.1 °C 1025.3 hPa NE 9.3 km/h 9.3 km/h 71 % 0.0 mm 0.0 W/m2 CLR
19:45 19.4 °C 14.1 °C 1025.3 hPa Calm     71 % 0.0 mm 0.0 W/m2 CLR
19:50 19.4 °C 14.3 °C 1025.6 hPa Calm     72 % 0.0 mm 0.0 W/m2 CLR
19:55 19.4 °C 14.5 °C 1025.6 hPa NE 9.3 km/h 9.3 km/h 73 % 0.0 mm 0.0 W/m2 CLR
20:00 19.4 °C 14.5 °C 1025.6 hPa NNE 7.4 km/h 7.4 km/h 73 % 0.0 mm 0.0 W/m2 CLR
20:05 18.9 °C 14.2 °C 1025.6 hPa Calm     74 % 0.0 mm 0.0 W/m2 CLR
20:10 18.9 °C 14.2 °C 1025.6 hPa NE 9.7 km/h 9.7 km/h 74 % 0.0 mm 0.0 W/m2 CLR
20:15 18.9 °C 14.3 °C 1025.6 hPa NNE 3.7 km/h   75 % 0.0 mm 0.0 W/m2 CLR
20:17 18.9 °C 14.3 °C 1025.6 hPa Calm     75 % 0.0 mm 0.0 W/m2 CLR
20:22 18.9 °C 14.3 °C 1025.6 hPa North 1.9 km/h 1.9 km/h 75 % 0.0 mm 0.0 W/m2 CLR
20:27 18.9 °C 14.3 °C 1026.0 hPa North 3.7 km/h 3.7 km/h 75 % 0.0 mm 0.0 W/m2 CLR
20:32 18.3 °C 14.0 °C 1025.6 hPa Calm     76 % 0.0 mm 0.0 W/m2 CLR
20:37 17.8 °C 13.5 °C 1026.0 hPa Calm     76 % 0.0 mm 0.0 W/m2 CLR
20:42 17.8 °C 13.5 °C 1026.0 hPa Calm     76 % 0.0 mm 0.0 W/m2 CLR
20:47 17.2 °C 12.9 °C 1026.0 hPa Calm     76 % 0.0 mm 0.0 W/m2 CLR
20:52 16.7 °C 12.4 °C 1026.0 hPa Calm     76 % 0.0 mm 0.0 W/m2 CLR
20:57 16.7 °C 12.4 °C 1026.0 hPa Calm     76 % 0.0 mm 0.0 W/m2 CLR
21:02 16.1 °C 11.9 °C 1026.0 hPa Calm     76 % 0.0 mm 0.0 W/m2 CLR
21:07 16.1 °C 11.9 °C 1026.0 hPa Calm     76 % 0.0 mm 0.0 W/m2 CLR
21:12 16.1 °C 12.1 °C 1026.0 hPa Calm     77 % 0.0 mm 0.0 W/m2 CLR
21:17 15.6 °C 11.6 °C 1026.0 hPa Calm     77 % 0.0 mm 0.0 W/m2 CLR
21:22 15.6 °C 11.6 °C 1026.0 hPa Calm     77 % 0.0 mm 0.0 W/m2 CLR
21:27 15.0 °C 11.0 °C 1026.0 hPa Calm     77 % 0.0 mm 0.0 W/m2 CLR
21:32 15.0 °C 11.0 °C 1026.3 hPa Calm     77 % 0.0 mm 0.0 W/m2 CLR
21:37 15.0 °C 11.0 °C 1026.3 hPa Calm     77 % 0.0 mm 0.0 W/m2 CLR
21:42 15.0 °C 11.2 °C 1026.3 hPa Calm     78 % 0.0 mm 0.0 W/m2 CLR
21:47 15.0 °C 11.2 °C 1026.3 hPa Calm     78 % 0.0 mm 0.0 W/m2 CLR
21:52 14.4 °C 10.7 °C 1026.3 hPa Calm     78 % 0.0 mm 0.0 W/m2 CLR
21:57 14.4 °C 10.8 °C 1026.3 hPa Calm     79 % 0.0 mm 0.0 W/m2 CLR
22:02 14.4 °C 10.8 °C 1026.3 hPa Calm     79 % 0.0 mm 0.0 W/m2 CLR
22:07 14.4 °C 10.8 °C 1026.6 hPa Calm     79 % 0.0 mm 0.0 W/m2 CLR
22:12 14.4 °C 11.1 °C 1026.6 hPa Calm     80 % 0.0 mm 0.0 W/m2 CLR
22:13 14.4 °C 11.1 °C 1026.6 hPa Calm     80 % 0.0 mm 0.0 W/m2 CLR
22:18 14.4 °C 11.1 °C 1026.6 hPa Calm     80 % 0.0 mm 0.0 W/m2 CLR
22:23 14.4 °C 11.1 °C 1026.6 hPa Calm     80 % 0.0 mm 0.0 W/m2 CLR
22:28 14.4 °C 10.8 °C 1026.6 hPa Calm     79 % 0.0 mm 0.0 W/m2 CLR
22:33 13.9 °C 10.5 °C 1026.6 hPa Calm     80 % 0.0 mm 0.0 W/m2 CLR
22:38 13.9 °C 10.7 °C 1026.6 hPa Calm     81 % 0.0 mm 0.0 W/m2 CLR
22:43 13.9 °C 10.7 °C 1026.6 hPa Calm     81 % 0.0 mm 0.0 W/m2 CLR
22:48 13.9 °C 10.9 °C 1026.6 hPa Calm     82 % 0.0 mm 0.0 W/m2 CLR
22:53 13.9 °C 10.7 °C 1026.6 hPa Calm     81 % 0.0 mm 0.0 W/m2 CLR
22:58 13.9 °C 10.7 °C 1027.0 hPa Calm     81 % 0.0 mm 0.0 W/m2 CLR
23:03 13.9 °C 10.9 °C 1027.0 hPa Calm     82 % 0.0 mm 0.0 W/m2 CLR
23:08 13.9 °C 10.9 °C 1026.6 hPa Calm     82 % 0.0 mm 0.0 W/m2 CLR
23:13 13.9 °C 10.9 °C 1027.0 hPa Calm     82 % 0.0 mm 0.0 W/m2 CLR
23:18 13.9 °C 10.9 °C 1027.0 hPa Calm     82 % 0.0 mm 0.0 W/m2 CLR
23:23 13.3 °C 10.5 °C 1027.0 hPa Calm     83 % 0.0 mm 0.0 W/m2 CLR
23:28 13.9 °C 11.1 °C 1027.0 hPa Calm     83 % 0.0 mm 0.0 W/m2 CLR
23:33 13.9 °C 11.2 °C 1027.0 hPa Calm     84 % 0.0 mm 0.0 W/m2 CLR
23:38 13.3 °C 10.5 °C 1027.0 hPa Calm     83 % 0.0 mm 0.0 W/m2 CLR
23:43 13.3 °C 10.7 °C 1027.0 hPa Calm     84 % 0.0 mm 0.0 W/m2 CLR
23:48 13.3 °C 10.5 °C 1027.0 hPa Calm     83 % 0.0 mm 0.0 W/m2 CLR
23:53 13.3 °C 10.5 °C 1027.0 hPa Calm     83 % 0.0 mm 0.0 W/m2 CLR
23:58 12.8 °C 10.2 °C 1027.0 hPa Calm     84 % 0.0 mm 0.0 W/m2 CLR
Lo Temps de Massalio
Compliments of Weather Underground - 1.25 mb